createdAt,value
2022-11-28T00:01:30.492Z,6.78
2022-11-28T00:03:58.598Z,6.20
2022-11-28T00:06:28.485Z,6.00
2022-11-28T00:08:58.512Z,5.88
2022-11-28T00:11:26.326Z,5.82
2022-11-28T00:13:54.882Z,5.75
2022-11-28T00:16:24.019Z,5.78
2022-11-28T00:18:52.673Z,5.05
2022-11-28T00:21:21.096Z,5.00
2022-11-28T00:23:50.767Z,5.18
2022-11-28T00:26:20.582Z,6.18
2022-11-28T00:28:48.653Z,5.03
2022-11-28T00:31:18.908Z,5.45
2022-11-28T00:33:47.092Z,5.15
2022-11-28T00:36:14.833Z,5.25
2022-11-28T00:38:42.919Z,4.15
2022-11-28T00:41:14.410Z,4.15
2022-11-28T00:43:43.654Z,4.10
2022-11-28T00:46:12.778Z,4.40
2022-11-28T00:48:41.086Z,3.53
2022-11-28T00:51:10.951Z,4.20
2022-11-28T00:53:40.383Z,4.25
2022-11-28T00:56:09.966Z,4.63
2022-11-28T00:58:40.014Z,4.05
2022-11-28T01:01:09.625Z,3.70
2022-11-28T01:03:37.455Z,3.65
2022-11-28T01:06:05.792Z,4.47
2022-11-28T01:08:33.971Z,4.00
2022-11-28T01:11:02.044Z,4.40
2022-11-28T01:13:30.165Z,3.70
2022-11-28T01:15:59.618Z,4.10
2022-11-28T01:18:27.355Z,2.78
2022-11-28T01:20:55.057Z,3.65
2022-11-28T01:23:22.774Z,3.47
2022-11-28T01:25:50.457Z,3.30
2022-11-28T01:28:18.215Z,3.38
2022-11-28T01:30:45.872Z,3.78
2022-11-28T01:33:14.958Z,3.70
2022-11-28T01:35:42.673Z,3.22
2022-11-28T01:38:10.393Z,3.17
2022-11-28T01:40:45.602Z,2.60
2022-11-28T01:43:13.321Z,3.20
2022-11-28T01:45:41.065Z,3.50
2022-11-28T01:48:11.386Z,3.53
2022-11-28T01:50:42.914Z,2.83
2022-11-28T01:53:11.837Z,2.75
2022-11-28T01:55:47.855Z,2.97
2022-11-28T01:58:16.014Z,2.72
2022-11-28T02:00:43.747Z,2.88
2022-11-28T02:03:15.050Z,2.47
2022-11-28T02:05:44.240Z,3.05
2022-11-28T02:08:12.077Z,3.10
2022-11-28T02:10:53.740Z,3.50
2022-11-28T02:13:36.141Z,2.60
2022-11-28T02:16:30.509Z,3.17
2022-11-28T02:19:16.418Z,3.20
2022-11-28T02:21:55.255Z,3.15
2022-11-28T02:24:49.791Z,3.92
2022-11-28T02:27:30.929Z,2.90
2022-11-28T02:30:16.718Z,2.55
2022-11-28T02:33:04.621Z,2.80
2022-11-28T02:35:38.839Z,3.08
2022-11-28T02:38:18.066Z,3.50
2022-11-28T02:40:55.921Z,3.00
2022-11-28T02:43:29.453Z,3.10
2022-11-28T02:46:03.302Z,3.00
2022-11-28T02:48:40.226Z,2.45
2022-11-28T02:51:13.605Z,3.10
2022-11-28T02:53:44.444Z,2.78
2022-11-28T02:56:13.078Z,2.75
2022-11-28T02:58:40.977Z,2.55
2022-11-28T03:01:18.180Z,2.25
2022-11-28T03:04:08.793Z,2.80
2022-11-28T03:06:48.660Z,2.67
2022-11-28T03:09:32.521Z,2.55
2022-11-28T03:12:10.939Z,2.30
2022-11-28T03:14:50.450Z,2.78
2022-11-28T03:17:25.722Z,2.55
2022-11-28T03:20:03.325Z,1.95
2022-11-28T03:22:39.451Z,3.28
2022-11-28T03:25:13.477Z,4.78
2022-11-28T03:27:46.691Z,3.72
2022-11-28T03:30:19.625Z,3.20
2022-11-28T03:32:51.587Z,4.07
2022-11-28T03:35:24.654Z,3.75
2022-11-28T03:37:56.389Z,2.50
2022-11-28T03:40:27.951Z,3.10
2022-11-28T03:42:59.714Z,3.08
2022-11-28T03:45:32.624Z,3.30
2022-11-28T03:48:07.490Z,2.95
2022-11-28T03:50:45.267Z,3.40
2022-11-28T03:53:18.586Z,3.38
2022-11-28T03:55:52.483Z,2.92
2022-11-28T03:58:26.966Z,2.53
2022-11-28T04:01:03.913Z,3.20
2022-11-28T04:03:41.847Z,2.83
2022-11-28T04:06:17.546Z,2.72
2022-11-28T04:08:50.517Z,2.13
2022-11-28T04:11:21.336Z,2.90
2022-11-28T04:13:55.563Z,2.83
2022-11-28T04:16:28.933Z,3.38
2022-11-28T04:19:01.030Z,2.60
2022-11-28T04:21:34.138Z,3.30
2022-11-28T04:24:05.840Z,2.85
2022-11-28T04:26:35.757Z,3.30
2022-11-28T04:29:07.215Z,2.78
2022-11-28T04:31:35.927Z,2.30
2022-11-28T04:34:06.790Z,3.00
2022-11-28T04:36:40.257Z,2.75
2022-11-28T04:39:13.662Z,2.78
2022-11-28T04:41:45.524Z,2.38
2022-11-28T04:44:20.515Z,2.83
2022-11-28T04:46:53.551Z,2.72
2022-11-28T04:49:21.742Z,2.85
2022-11-28T04:51:59.493Z,3.92
2022-11-28T04:54:32.686Z,3.13
2022-11-28T04:57:04.746Z,2.67
2022-11-28T04:59:33.189Z,3.10
2022-11-28T05:02:05.329Z,2.63
2022-11-28T05:04:36.555Z,2.78
2022-11-28T05:07:08.070Z,2.63
2022-11-28T05:09:36.637Z,2.70
2022-11-28T05:12:05.058Z,2.17
2022-11-28T05:14:33.075Z,3.45
2022-11-28T05:17:00.752Z,2.60
2022-11-28T05:19:28.491Z,2.80
2022-11-28T05:21:56.197Z,2.25
2022-11-28T05:24:31.947Z,2.67
2022-11-28T05:27:00.627Z,2.70
2022-11-28T05:29:28.316Z,2.78
2022-11-28T05:31:56.176Z,2.60
2022-11-28T05:34:23.901Z,2.47
2022-11-28T05:36:51.661Z,2.90
2022-11-28T05:39:19.330Z,2.45
2022-11-28T05:41:48.539Z,4.00
2022-11-28T05:44:16.242Z,4.45
2022-11-28T05:46:43.996Z,3.30
2022-11-28T05:49:11.746Z,2.45
2022-11-28T05:51:39.720Z,3.20
2022-11-28T05:54:07.837Z,3.17
2022-11-28T05:56:42.130Z,3.58
2022-11-28T05:59:11.479Z,2.50
2022-11-28T06:01:39.245Z,2.95
2022-11-28T06:04:07.087Z,3.55
2022-11-28T06:06:36.617Z,2.92
2022-11-28T06:09:06.038Z,2.50
2022-11-28T06:11:35.066Z,3.90
2022-11-28T06:14:02.911Z,2.63
2022-11-28T06:16:32.219Z,3.08
2022-11-28T06:19:01.581Z,3.10
2022-11-28T06:21:30.577Z,2.75
2022-11-28T06:23:58.974Z,2.67
2022-11-28T06:26:28.241Z,3.30
2022-11-28T06:28:56.375Z,3.63
2022-11-28T06:31:27.139Z,3.30
2022-11-28T06:33:56.261Z,3.08
2022-11-28T06:36:25.117Z,3.47
2022-11-28T06:38:53.327Z,3.17
2022-11-28T06:41:22.757Z,3.78
2022-11-28T06:43:50.834Z,3.40
2022-11-28T06:46:21.143Z,3.30
2022-11-28T06:48:52.134Z,3.88
2022-11-28T06:51:21.858Z,3.20
2022-11-28T06:53:49.794Z,3.50
2022-11-28T06:56:20.002Z,3.67
2022-11-28T06:58:48.511Z,3.08
2022-11-28T07:01:18.375Z,3.65
2022-11-28T07:03:46.477Z,3.35
2022-11-28T07:06:16.290Z,3.83
2022-11-28T07:08:45.325Z,3.65
2022-11-28T07:11:16.072Z,4.15
2022-11-28T07:13:45.624Z,3.45
2022-11-28T07:16:15.891Z,3.67
2022-11-28T07:18:43.874Z,3.25
2022-11-28T07:21:12.139Z,3.65
2022-11-28T07:23:39.842Z,3.78
2022-11-28T07:26:09.062Z,3.67
2022-11-28T07:28:36.797Z,3.47
2022-11-28T07:31:07.300Z,3.92
2022-11-28T07:33:36.026Z,4.10
2022-11-28T07:36:06.646Z,3.38
2022-11-28T07:38:36.935Z,3.55
2022-11-28T07:41:05.858Z,3.15
2022-11-28T07:43:35.010Z,3.60
2022-11-28T07:46:06.055Z,3.78
2022-11-28T07:48:34.171Z,3.10
2022-11-28T07:51:06.542Z,3.10
2022-11-28T07:53:34.452Z,4.15
2022-11-28T07:56:04.458Z,3.70
2022-11-28T07:58:32.704Z,3.45
2022-11-28T08:01:01.914Z,3.35
2022-11-28T08:03:29.590Z,3.88
2022-11-28T08:06:03.088Z,3.70
2022-11-28T08:08:31.019Z,5.70
2022-11-28T08:10:59.911Z,5.43
2022-11-28T08:13:28.627Z,6.45
2022-11-28T08:15:56.662Z,4.93
2022-11-28T08:18:25.840Z,5.88
2022-11-28T08:20:53.743Z,4.78
2022-11-28T08:23:21.482Z,4.85
2022-11-28T08:25:50.098Z,5.22
2022-11-28T08:28:17.890Z,4.47
2022-11-28T08:30:48.525Z,5.53
2022-11-28T08:33:16.387Z,4.30
2022-11-28T08:35:45.334Z,5.75
2022-11-28T08:38:13.106Z,5.68
2022-11-28T08:40:40.811Z,5.63
2022-11-28T08:43:08.491Z,5.00
2022-11-28T08:45:41.002Z,4.72
2022-11-28T08:48:09.954Z,5.63
2022-11-28T08:50:37.651Z,4.63
2022-11-28T08:53:08.082Z,4.85
2022-11-28T08:55:40.558Z,4.63
2022-11-28T08:58:11.020Z,5.40
2022-11-28T09:00:43.174Z,5.35
2022-11-28T09:03:14.934Z,5.68
2022-11-28T09:05:45.268Z,4.30
2022-11-28T09:08:20.326Z,4.82
2022-11-28T09:10:49.785Z,5.82
2022-11-28T09:13:18.315Z,4.63
2022-11-28T09:15:52.511Z,5.03
2022-11-28T09:18:21.326Z,5.20
2022-11-28T09:20:49.373Z,4.60
2022-11-28T09:23:18.599Z,4.45
2022-11-28T09:25:48.859Z,5.18
2022-11-28T09:28:19.574Z,5.43
2022-11-28T09:30:52.028Z,5.72
2022-11-28T09:33:19.819Z,6.80
2022-11-28T09:35:48.756Z,6.35
2022-11-28T09:38:20.450Z,7.85
2022-11-28T09:40:49.214Z,8.55
2022-11-28T09:43:23.007Z,8.43
2022-11-28T09:45:53.696Z,7.28
2022-11-28T09:48:30.104Z,7.68
2022-11-28T09:51:04.426Z,9.07
2022-11-28T09:53:39.347Z,8.80
2022-11-28T09:56:12.479Z,10.88
2022-11-28T09:58:45.997Z,10.35
2022-11-28T10:01:19.667Z,8.85
2022-11-28T10:03:55.325Z,8.60
2022-11-28T10:06:29.749Z,8.48
2022-11-28T10:09:15.866Z,8.63
2022-11-28T10:11:53.498Z,7.68
2022-11-28T10:14:42.563Z,6.82
2022-11-28T10:17:20.720Z,6.47
2022-11-28T10:19:54.825Z,8.00
2022-11-28T10:22:32.038Z,7.00
2022-11-28T10:25:08.795Z,7.00
2022-11-28T10:27:37.033Z,6.90
2022-11-28T10:30:09.346Z,7.68
2022-11-28T10:32:41.437Z,8.27
2022-11-28T10:35:28.666Z,7.72
2022-11-28T10:37:56.764Z,7.72
2022-11-28T10:40:31.600Z,8.20
2022-11-28T10:43:03.429Z,6.57
2022-11-28T10:45:44.725Z,9.00
2022-11-28T10:48:39.133Z,8.35
2022-11-28T10:51:23.687Z,8.25
2022-11-28T10:54:02.097Z,7.80
2022-11-28T10:56:46.058Z,6.82
2022-11-28T10:59:22.346Z,7.72
2022-11-28T11:01:51.834Z,7.45
2022-11-28T11:04:26.186Z,7.65
2022-11-28T11:07:14.857Z,7.50
2022-11-28T11:09:49.930Z,7.57
2022-11-28T11:12:22.511Z,7.85
2022-11-28T11:14:50.462Z,8.35
2022-11-28T11:17:31.348Z,6.30
2022-11-28T11:20:03.263Z,6.75
2022-11-28T11:22:32.421Z,7.90
2022-11-28T11:25:14.893Z,7.15
2022-11-28T11:27:51.229Z,7.90
2022-11-28T11:30:27.344Z,7.00
2022-11-28T11:32:57.711Z,7.88
2022-11-28T11:35:32.146Z,8.00
2022-11-28T11:38:16.455Z,6.32
2022-11-28T11:40:44.927Z,7.07
2022-11-28T11:43:27.450Z,6.57
2022-11-28T11:46:11.039Z,7.15
2022-11-28T11:48:41.585Z,6.03
2022-11-28T11:51:23.505Z,6.85
2022-11-28T11:54:02.703Z,6.68
2022-11-28T11:56:33.291Z,8.90
2022-11-28T11:59:05.944Z,13.60
2022-11-28T12:01:35.950Z,8.45
2022-11-28T12:04:23.723Z,7.30
2022-11-28T12:06:58.987Z,6.35
2022-11-28T12:09:31.222Z,7.75
2022-11-28T12:12:05.970Z,6.10
2022-11-28T12:14:36.782Z,7.55
2022-11-28T12:20:26.859Z,7.03
2022-11-28T12:23:05.625Z,7.30
2022-11-28T12:25:42.809Z,8.15
2022-11-28T12:28:23.663Z,7.93
2022-11-28T12:31:02.946Z,7.20
2022-11-28T12:33:43.789Z,7.95
2022-11-28T12:36:20.402Z,7.85
2022-11-28T12:39:00.653Z,11.55
2022-11-28T12:41:44.235Z,15.68
2022-11-28T12:44:22.693Z,15.35
2022-11-28T12:47:01.614Z,11.95
2022-11-28T12:49:40.689Z,11.80
2022-11-28T12:52:22.546Z,10.30
2022-11-28T12:55:05.672Z,10.25
2022-11-28T12:57:40.856Z,11.35
2022-11-28T13:00:17.974Z,10.23
2022-11-28T13:03:02.148Z,10.98
2022-11-28T13:05:41.263Z,11.45
2022-11-28T13:08:30.700Z,10.98
2022-11-28T13:11:07.363Z,10.38
2022-11-28T13:13:42.060Z,11.00
2022-11-28T13:16:23.566Z,11.27
2022-11-28T13:19:03.573Z,11.98
2022-11-28T13:21:41.851Z,12.43
2022-11-28T13:24:20.100Z,12.18
2022-11-28T13:26:58.699Z,12.27
2022-11-28T13:29:36.752Z,12.98
2022-11-28T13:32:13.406Z,14.35
2022-11-28T13:34:43.075Z,12.40
2022-11-28T13:40:14.829Z,11.18
2022-11-28T13:43:08.061Z,11.82
2022-11-28T13:45:39.621Z,11.43
2022-11-28T13:49:06.189Z,12.15
2022-11-28T13:51:31.399Z,11.30
2022-11-28T13:54:29.844Z,12.63
2022-11-28T13:57:07.219Z,13.25
2022-11-28T13:59:35.566Z,12.68
2022-11-28T14:02:06.311Z,12.55
2022-11-28T14:04:34.883Z,12.60
2022-11-28T14:07:07.299Z,14.25
2022-11-28T14:09:52.258Z,13.77
2022-11-28T14:12:29.025Z,14.02
2022-11-28T14:15:09.376Z,14.85
2022-11-28T14:17:52.051Z,14.40
2022-11-28T14:20:29.275Z,14.20
2022-11-28T14:23:14.022Z,12.07
2022-11-28T14:25:44.443Z,13.43
2022-11-28T14:28:22.967Z,10.75
2022-11-28T14:31:05.382Z,10.40
2022-11-28T14:33:39.123Z,9.95
2022-11-28T14:36:28.707Z,10.80
2022-11-28T14:39:32.325Z,15.68
2022-11-28T14:45:40.958Z,15.68
2022-11-28T14:48:17.840Z,10.50
2022-11-28T14:50:55.918Z,11.65
2022-11-28T14:53:47.639Z,13.70
2022-11-28T14:56:26.625Z,34.53
2022-11-28T14:58:59.439Z,37.58
2022-11-28T15:01:43.341Z,30.77
2022-11-28T15:04:27.995Z,21.45
2022-11-28T15:06:56.414Z,16.02
2022-11-28T15:09:31.726Z,12.90
2022-11-28T15:12:11.851Z,13.70
2022-11-28T15:14:41.801Z,14.88
2022-11-28T15:17:14.650Z,14.07
2022-11-28T15:19:46.997Z,11.52
2022-11-28T15:22:31.576Z,13.98
2022-11-28T15:24:59.731Z,11.88
2022-11-28T15:27:29.307Z,12.63
2022-11-28T15:30:00.099Z,12.30
2022-11-28T15:32:30.951Z,12.32
2022-11-28T15:35:10.816Z,12.10
2022-11-28T15:37:46.692Z,10.90
2022-11-28T15:40:21.046Z,12.48
2022-11-28T15:42:51.104Z,11.85
2022-11-28T15:45:25.949Z,12.60
2022-11-28T15:47:55.557Z,13.25
2022-11-28T15:50:25.476Z,11.73
2022-11-28T15:52:55.914Z,13.85
2022-11-28T15:55:24.758Z,12.07
2022-11-28T15:58:10.846Z,11.93
2022-11-28T16:00:42.510Z,13.18
2022-11-28T16:03:16.518Z,13.45
2022-11-28T16:05:44.770Z,12.63
2022-11-28T16:08:23.043Z,13.43
2022-11-28T16:10:50.843Z,12.25
2022-11-28T16:13:24.622Z,13.23
2022-11-28T16:15:55.892Z,17.10
2022-11-28T16:18:26.338Z,14.77
2022-11-28T16:20:55.298Z,18.05
2022-11-28T16:23:28.825Z,17.30
2022-11-28T16:26:01.567Z,13.07
2022-11-28T16:28:33.229Z,13.43
2022-11-28T16:31:01.559Z,14.57
2022-11-28T16:33:46.863Z,14.02
2022-11-28T16:36:22.610Z,11.48
2022-11-28T16:38:54.725Z,12.77
2022-11-28T16:41:24.861Z,12.40
2022-11-28T16:43:59.586Z,13.18
2022-11-28T16:46:33.202Z,12.48
2022-11-28T16:49:01.630Z,13.52
2022-11-28T16:51:34.088Z,11.85
2022-11-28T16:54:23.024Z,12.45
2022-11-28T16:56:50.887Z,13.70
2022-11-28T16:59:21.270Z,12.80
2022-11-28T17:01:53.320Z,12.43
2022-11-28T17:04:23.203Z,12.50
2022-11-28T17:06:52.205Z,12.68
2022-11-28T17:09:20.630Z,12.65
2022-11-28T17:11:57.183Z,11.27
2022-11-28T17:14:26.378Z,13.20
2022-11-28T17:16:54.326Z,13.52
2022-11-28T17:19:22.074Z,13.45
2022-11-28T17:21:52.378Z,13.95
2022-11-28T17:24:22.273Z,14.68
2022-11-28T17:26:51.401Z,14.70
2022-11-28T17:29:19.766Z,13.63
2022-11-28T17:31:50.027Z,14.23
2022-11-28T17:34:20.511Z,14.48
2022-11-28T17:36:54.252Z,14.20
2022-11-28T17:39:22.168Z,15.68
2022-11-28T17:41:50.485Z,14.45
2022-11-28T17:44:21.685Z,15.52
2022-11-28T17:46:52.454Z,14.88
2022-11-28T17:49:20.709Z,15.18
2022-11-28T17:51:50.019Z,13.90
2022-11-28T17:54:20.708Z,15.88
2022-11-28T17:56:53.452Z,15.45
2022-11-28T17:59:24.481Z,15.35
2022-11-28T18:01:53.838Z,15.45
2022-11-28T18:04:25.167Z,13.93
2022-11-28T18:06:53.286Z,15.18
2022-11-28T18:09:21.058Z,15.35
2022-11-28T18:11:48.798Z,17.50
2022-11-28T18:14:19.482Z,15.27
2022-11-28T18:16:48.285Z,16.92
2022-11-28T18:19:17.339Z,17.75
2022-11-28T18:21:46.648Z,17.08
2022-11-28T18:24:14.525Z,15.55
2022-11-28T18:26:42.710Z,16.77
2022-11-28T18:29:10.653Z,18.33
2022-11-28T18:31:38.716Z,47.03
2022-11-28T18:34:08.858Z,19.95
2022-11-28T18:36:39.615Z,17.52
2022-11-28T18:39:12.831Z,16.75
2022-11-28T18:41:40.810Z,20.63
2022-11-28T18:44:09.043Z,19.25
2022-11-28T18:46:36.878Z,18.35
2022-11-28T18:49:04.633Z,16.42
2022-11-28T18:51:34.682Z,19.88
2022-11-28T18:54:06.124Z,19.45
2022-11-28T18:56:35.651Z,17.83
2022-11-28T18:59:04.129Z,20.85
2022-11-28T19:01:34.221Z,20.60
2022-11-28T19:04:04.749Z,23.20
2022-11-28T19:06:34.225Z,24.90
2022-11-28T19:09:05.692Z,44.10
2022-11-28T19:11:34.187Z,26.13
2022-11-28T19:14:02.909Z,24.90
2022-11-28T19:16:32.445Z,22.10
2022-11-28T19:19:02.382Z,24.73
2022-11-28T19:21:32.689Z,25.20
2022-11-28T19:24:01.255Z,21.60
2022-11-28T19:26:33.332Z,24.98
2022-11-28T19:29:01.718Z,22.50
2022-11-28T19:31:31.713Z,23.33
2022-11-28T19:34:02.039Z,21.08
2022-11-28T19:36:34.239Z,24.08
2022-11-28T19:39:02.621Z,21.98
2022-11-28T19:41:32.283Z,24.55
2022-11-28T19:44:00.286Z,24.75
2022-11-28T19:46:35.407Z,29.90
2022-11-28T19:49:06.721Z,25.38
2022-11-28T19:51:35.850Z,25.20
2022-11-28T19:54:04.312Z,23.70
2022-11-28T19:56:40.394Z,21.67
2022-11-28T19:59:08.181Z,20.95
2022-11-28T20:01:36.192Z,22.08
2022-11-28T20:04:04.417Z,20.50
2022-11-28T20:06:33.729Z,19.23
2022-11-28T20:09:05.815Z,20.05
2022-11-28T20:11:37.226Z,19.05
2022-11-28T20:14:07.805Z,19.90
2022-11-28T20:16:37.579Z,19.35
2022-11-28T20:19:06.527Z,18.77
2022-11-28T20:21:35.695Z,16.58
2022-11-28T20:24:07.574Z,17.02
2022-11-28T20:26:40.476Z,18.27
2022-11-28T20:29:12.795Z,19.30
2022-11-28T20:31:46.035Z,20.05
2022-11-28T20:34:18.191Z,18.42
2022-11-28T20:36:52.954Z,17.88
2022-11-28T20:39:21.397Z,19.08
2022-11-28T20:41:50.463Z,18.75
2022-11-28T20:44:18.971Z,19.17
2022-11-28T20:46:49.355Z,17.95
2022-11-28T20:49:17.732Z,17.80
2022-11-28T20:51:45.658Z,16.83
2022-11-28T20:54:14.307Z,16.65
2022-11-28T20:57:12.771Z,16.40
2022-11-28T20:59:32.587Z,15.90
2022-11-28T21:02:00.422Z,15.68
2022-11-28T21:04:28.248Z,17.80
2022-11-28T21:06:56.170Z,17.02
2022-11-28T21:09:24.243Z,15.95
2022-11-28T21:11:59.821Z,14.35
2022-11-28T21:14:28.873Z,14.75
2022-11-28T21:16:59.427Z,15.10
2022-11-28T21:19:27.262Z,13.18
2022-11-28T21:21:55.114Z,15.23
2022-11-28T21:24:23.266Z,14.38
2022-11-28T21:26:53.873Z,13.18
2022-11-28T21:29:23.982Z,14.75
2022-11-28T21:31:52.626Z,13.88
2022-11-28T21:34:22.580Z,14.18
2022-11-28T21:36:50.426Z,13.63
2022-11-28T21:39:20.443Z,14.85
2022-11-28T21:41:48.729Z,13.95
2022-11-28T21:44:16.586Z,15.27
2022-11-28T21:46:44.361Z,13.65
2022-11-28T21:49:13.408Z,14.32
2022-11-28T21:51:42.682Z,12.95
2022-11-28T21:54:11.652Z,9.13
2022-11-28T21:56:39.859Z,7.43
2022-11-28T21:59:07.837Z,6.25
2022-11-28T22:01:35.680Z,6.60
2022-11-28T22:04:04.553Z,6.65
2022-11-28T22:06:33.019Z,5.70
2022-11-28T22:09:09.060Z,4.65
2022-11-28T22:11:38.943Z,5.10
2022-11-28T22:14:06.702Z,3.63
2022-11-28T22:16:34.677Z,4.80
2022-11-28T22:19:02.801Z,5.50
2022-11-28T22:24:20.292Z,4.25
2022-11-28T22:26:49.262Z,5.07
2022-11-28T22:29:17.120Z,4.93
2022-11-28T22:31:44.934Z,4.97
2022-11-28T22:34:13.433Z,5.05
2022-11-28T22:36:41.787Z,5.07
2022-11-28T22:39:11.542Z,5.57
2022-11-28T22:41:40.775Z,6.25
2022-11-28T22:44:11.001Z,5.85
2022-11-28T22:46:39.090Z,7.20
2022-11-28T22:49:07.389Z,6.80
2022-11-28T22:51:35.123Z,7.35
2022-11-28T22:54:03.667Z,7.35
2022-11-28T22:56:33.091Z,6.35
2022-11-28T22:59:04.675Z,7.20
2022-11-28T23:01:34.603Z,6.50
2022-11-28T23:04:02.963Z,6.85
2022-11-28T23:06:32.638Z,6.53
2022-11-28T23:09:02.526Z,6.20
2022-11-28T23:11:32.576Z,5.78
2022-11-28T23:14:02.365Z,6.03
2022-11-28T23:16:31.941Z,6.35
2022-11-28T23:19:02.708Z,6.45
2022-11-28T23:21:32.691Z,7.18
2022-11-28T23:24:00.695Z,5.93
2022-11-28T23:26:31.020Z,7.20
2022-11-28T23:29:00.812Z,9.02
2022-11-28T23:31:32.620Z,9.50
2022-11-28T23:34:01.877Z,10.10
2022-11-28T23:36:35.745Z,8.93
2022-11-28T23:39:08.791Z,10.70
2022-11-28T23:41:36.534Z,10.75
2022-11-28T23:44:04.557Z,9.90
2022-11-28T23:46:34.456Z,10.65
2022-11-28T23:49:03.608Z,9.80
2022-11-28T23:51:33.285Z,9.75
2022-11-28T23:54:01.297Z,9.27
2022-11-28T23:56:33.281Z,7.93
2022-11-28T23:59:02.984Z,8.88
